sensor_id;sensor_type;location;lat;lon;timestamp;P1;durP1;ratioP1;P2;durP2;ratioP2
14074;SDS011;12831;52.392;13.066;2023-06-22T00:02:16;12.35;;;8.18;;
14074;SDS011;12831;52.392;13.066;2023-06-22T00:04:42;14.27;;;9.73;;
14074;SDS011;12831;52.392;13.066;2023-06-22T00:07:08;10.48;;;9.38;;
14074;SDS011;12831;52.392;13.066;2023-06-22T00:09:34;12.43;;;10.13;;
14074;SDS011;12831;52.392;13.066;2023-06-22T00:12:00;12.18;;;9.10;;
14074;SDS011;12831;52.392;13.066;2023-06-22T00:14:26;10.10;;;9.00;;
14074;SDS011;12831;52.392;13.066;2023-06-22T00:16:51;11.65;;;9.27;;
14074;SDS011;12831;52.392;13.066;2023-06-22T00:19:23;11.93;;;9.95;;
14074;SDS011;12831;52.392;13.066;2023-06-22T00:21:49;10.55;;;9.45;;
14074;SDS011;12831;52.392;13.066;2023-06-22T00:24:18;11.52;;;9.98;;
14074;SDS011;12831;52.392;13.066;2023-06-22T00:26:45;12.63;;;8.75;;
14074;SDS011;12831;52.392;13.066;2023-06-22T00:29:11;11.45;;;9.48;;
14074;SDS011;12831;52.392;13.066;2023-06-22T00:31:37;11.40;;;10.15;;
14074;SDS011;12831;52.392;13.066;2023-06-22T00:34:03;12.55;;;9.27;;
14074;SDS011;12831;52.392;13.066;2023-06-22T00:36:29;15.43;;;9.18;;
14074;SDS011;12831;52.392;13.066;2023-06-22T00:38:55;10.88;;;9.80;;
14074;SDS011;12831;52.392;13.066;2023-06-22T00:41:21;12.02;;;9.05;;
14074;SDS011;12831;52.392;13.066;2023-06-22T00:43:47;11.48;;;9.35;;
14074;SDS011;12831;52.392;13.066;2023-06-22T00:46:13;10.00;;;8.98;;
14074;SDS011;12831;52.392;13.066;2023-06-22T00:48:38;10.25;;;8.90;;
14074;SDS011;12831;52.392;13.066;2023-06-22T00:51:07;12.68;;;9.32;;
14074;SDS011;12831;52.392;13.066;2023-06-22T00:53:33;11.13;;;9.70;;
14074;SDS011;12831;52.392;13.066;2023-06-22T00:56:00;11.07;;;9.65;;
14074;SDS011;12831;52.392;13.066;2023-06-22T00:58:26;11.13;;;9.18;;
14074;SDS011;12831;52.392;13.066;2023-06-22T01:00:52;10.65;;;9.55;;
14074;SDS011;12831;52.392;13.066;2023-06-22T01:03:18;9.82;;;8.73;;
14074;SDS011;12831;52.392;13.066;2023-06-22T01:05:46;11.32;;;8.68;;
14074;SDS011;12831;52.392;13.066;2023-06-22T01:08:20;10.10;;;8.32;;
14074;SDS011;12831;52.392;13.066;2023-06-22T01:11:25;9.70;;;8.60;;
14074;SDS011;12831;52.392;13.066;2023-06-22T01:13:44;16.90;;;8.63;;
14074;SDS011;12831;52.392;13.066;2023-06-22T01:18:40;10.15;;;8.80;;
14074;SDS011;12831;52.392;13.066;2023-06-22T01:21:07;12.10;;;9.23;;
14074;SDS011;12831;52.392;13.066;2023-06-22T01:23:42;13.13;;;9.00;;
14074;SDS011;12831;52.392;13.066;2023-06-22T01:26:16;13.30;;;9.55;;
14074;SDS011;12831;52.392;13.066;2023-06-22T01:28:50;9.48;;;7.63;;
14074;SDS011;12831;52.392;13.066;2023-06-22T01:31:22;13.40;;;8.38;;
14074;SDS011;12831;52.392;13.066;2023-06-22T01:33:59;10.80;;;8.48;;
14074;SDS011;12831;52.392;13.066;2023-06-22T01:36:26;11.15;;;8.18;;
14074;SDS011;12831;52.392;13.066;2023-06-22T01:38:53;10.43;;;7.70;;
14074;SDS011;12831;52.392;13.066;2023-06-22T01:41:19;10.65;;;8.43;;
14074;SDS011;12831;52.392;13.066;2023-06-22T01:43:46;12.82;;;7.72;;
14074;SDS011;12831;52.392;13.066;2023-06-22T01:46:13;9.45;;;8.27;;
14074;SDS011;12831;52.392;13.066;2023-06-22T01:48:40;11.57;;;9.25;;
14074;SDS011;12831;52.392;13.066;2023-06-22T01:51:06;11.63;;;9.13;;
14074;SDS011;12831;52.392;13.066;2023-06-22T01:53:32;13.23;;;9.50;;
14074;SDS011;12831;52.392;13.066;2023-06-22T01:55:58;10.77;;;8.40;;
14074;SDS011;12831;52.392;13.066;2023-06-22T01:58:27;9.73;;;8.48;;
14074;SDS011;12831;52.392;13.066;2023-06-22T02:00:56;12.05;;;9.02;;
14074;SDS011;12831;52.392;13.066;2023-06-22T02:03:29;11.50;;;9.05;;
14074;SDS011;12831;52.392;13.066;2023-06-22T02:06:11;14.20;;;9.75;;
14074;SDS011;12831;52.392;13.066;2023-06-22T02:08:41;11.48;;;9.50;;
14074;SDS011;12831;52.392;13.066;2023-06-22T02:11:08;11.13;;;9.20;;
14074;SDS011;12831;52.392;13.066;2023-06-22T02:13:35;10.70;;;8.70;;
14074;SDS011;12831;52.392;13.066;2023-06-22T02:16:01;9.93;;;7.45;;
14074;SDS011;12831;52.392;13.066;2023-06-22T02:18:27;11.10;;;8.88;;
14074;SDS011;12831;52.392;13.066;2023-06-22T02:20:53;11.55;;;9.70;;
14074;SDS011;12831;52.392;13.066;2023-06-22T02:23:19;13.82;;;9.77;;
14074;SDS011;12831;52.392;13.066;2023-06-22T02:25:45;11.15;;;8.98;;
14074;SDS011;12831;52.392;13.066;2023-06-22T02:28:11;11.00;;;8.82;;
14074;SDS011;12831;52.392;13.066;2023-06-22T02:30:37;11.30;;;8.73;;
14074;SDS011;12831;52.392;13.066;2023-06-22T02:33:03;12.90;;;9.02;;
14074;SDS011;12831;52.392;13.066;2023-06-22T02:35:29;13.93;;;8.88;;
14074;SDS011;12831;52.392;13.066;2023-06-22T02:37:58;13.05;;;9.18;;
14074;SDS011;12831;52.392;13.066;2023-06-22T02:40:23;12.25;;;9.40;;
14074;SDS011;12831;52.392;13.066;2023-06-22T02:42:49;16.48;;;8.93;;
14074;SDS011;12831;52.392;13.066;2023-06-22T02:45:15;9.45;;;8.10;;
14074;SDS011;12831;52.392;13.066;2023-06-22T02:47:41;11.38;;;8.77;;
14074;SDS011;12831;52.392;13.066;2023-06-22T02:50:07;12.32;;;8.52;;
14074;SDS011;12831;52.392;13.066;2023-06-22T02:52:33;11.20;;;8.60;;
14074;SDS011;12831;52.392;13.066;2023-06-22T02:54:59;13.43;;;9.43;;
14074;SDS011;12831;52.392;13.066;2023-06-22T02:57:25;9.90;;;8.65;;
14074;SDS011;12831;52.392;13.066;2023-06-22T02:59:51;11.50;;;9.38;;
14074;SDS011;12831;52.392;13.066;2023-06-22T03:02:17;10.90;;;8.93;;
14074;SDS011;12831;52.392;13.066;2023-06-22T03:04:43;13.57;;;9.00;;
14074;SDS011;12831;52.392;13.066;2023-06-22T03:07:09;11.98;;;8.70;;
14074;SDS011;12831;52.392;13.066;2023-06-22T03:09:35;12.60;;;10.13;;
14074;SDS011;12831;52.392;13.066;2023-06-22T03:12:01;10.52;;;9.43;;
14074;SDS011;12831;52.392;13.066;2023-06-22T03:14:28;13.82;;;10.52;;
14074;SDS011;12831;52.392;13.066;2023-06-22T03:16:54;13.25;;;10.18;;
14074;SDS011;12831;52.392;13.066;2023-06-22T03:19:20;10.45;;;9.18;;
14074;SDS011;12831;52.392;13.066;2023-06-22T03:21:47;11.20;;;9.25;;
14074;SDS011;12831;52.392;13.066;2023-06-22T03:24:13;13.55;;;10.07;;
14074;SDS011;12831;52.392;13.066;2023-06-22T03:26:38;13.38;;;9.48;;
14074;SDS011;12831;52.392;13.066;2023-06-22T03:29:04;11.88;;;10.68;;
14074;SDS011;12831;52.392;13.066;2023-06-22T03:31:30;12.38;;;9.88;;
14074;SDS011;12831;52.392;13.066;2023-06-22T03:33:56;11.15;;;9.93;;
14074;SDS011;12831;52.392;13.066;2023-06-22T03:36:22;15.60;;;9.77;;
14074;SDS011;12831;52.392;13.066;2023-06-22T03:38:49;15.57;;;10.35;;
14074;SDS011;12831;52.392;13.066;2023-06-22T03:41:16;15.18;;;11.10;;
14074;SDS011;12831;52.392;13.066;2023-06-22T03:43:42;12.73;;;10.02;;
14074;SDS011;12831;52.392;13.066;2023-06-22T03:46:08;12.57;;;9.95;;
14074;SDS011;12831;52.392;13.066;2023-06-22T03:48:33;15.70;;;12.50;;
14074;SDS011;12831;52.392;13.066;2023-06-22T03:50:59;14.98;;;11.10;;
14074;SDS011;12831;52.392;13.066;2023-06-22T03:53:25;12.25;;;9.93;;
14074;SDS011;12831;52.392;13.066;2023-06-22T03:55:51;11.40;;;9.05;;
14074;SDS011;12831;52.392;13.066;2023-06-22T03:58:18;11.73;;;9.82;;
14074;SDS011;12831;52.392;13.066;2023-06-22T04:00:48;12.07;;;10.18;;
14074;SDS011;12831;52.392;13.066;2023-06-22T04:03:14;13.13;;;10.93;;
14074;SDS011;12831;52.392;13.066;2023-06-22T04:05:41;11.35;;;9.95;;
14074;SDS011;12831;52.392;13.066;2023-06-22T04:08:07;13.98;;;9.05;;
14074;SDS011;12831;52.392;13.066;2023-06-22T04:10:33;13.23;;;10.00;;
14074;SDS011;12831;52.392;13.066;2023-06-22T04:13:03;12.85;;;9.55;;
14074;SDS011;12831;52.392;13.066;2023-06-22T04:15:29;10.90;;;9.60;;
14074;SDS011;12831;52.392;13.066;2023-06-22T04:17:55;14.23;;;9.98;;
14074;SDS011;12831;52.392;13.066;2023-06-22T04:20:21;12.48;;;9.25;;
14074;SDS011;12831;52.392;13.066;2023-06-22T04:22:47;13.95;;;10.55;;
14074;SDS011;12831;52.392;13.066;2023-06-22T04:25:13;11.27;;;9.50;;
14074;SDS011;12831;52.392;13.066;2023-06-22T04:27:39;11.57;;;8.70;;
14074;SDS011;12831;52.392;13.066;2023-06-22T04:30:06;15.35;;;11.93;;
14074;SDS011;12831;52.392;13.066;2023-06-22T04:32:33;12.38;;;9.52;;
14074;SDS011;12831;52.392;13.066;2023-06-22T04:35:02;11.68;;;9.10;;
14074;SDS011;12831;52.392;13.066;2023-06-22T04:37:30;10.13;;;8.52;;
14074;SDS011;12831;52.392;13.066;2023-06-22T04:39:56;11.95;;;8.18;;
14074;SDS011;12831;52.392;13.066;2023-06-22T04:42:23;15.32;;;8.68;;
14074;SDS011;12831;52.392;13.066;2023-06-22T04:44:48;9.30;;;8.00;;
14074;SDS011;12831;52.392;13.066;2023-06-22T04:47:14;10.93;;;9.02;;
14074;SDS011;12831;52.392;13.066;2023-06-22T04:49:40;15.30;;;9.18;;
14074;SDS011;12831;52.392;13.066;2023-06-22T04:52:09;9.52;;;8.45;;
14074;SDS011;12831;52.392;13.066;2023-06-22T04:54:36;10.13;;;9.10;;
14074;SDS011;12831;52.392;13.066;2023-06-22T04:57:02;12.68;;;9.20;;
14074;SDS011;12831;52.392;13.066;2023-06-22T04:59:29;11.52;;;8.30;;
14074;SDS011;12831;52.392;13.066;2023-06-22T05:01:56;10.63;;;8.45;;
14074;SDS011;12831;52.392;13.066;2023-06-22T05:04:22;10.85;;;8.18;;
14074;SDS011;12831;52.392;13.066;2023-06-22T05:06:51;9.73;;;7.97;;
14074;SDS011;12831;52.392;13.066;2023-06-22T05:09:17;10.68;;;7.57;;
14074;SDS011;12831;52.392;13.066;2023-06-22T05:11:44;9.60;;;7.32;;
14074;SDS011;12831;52.392;13.066;2023-06-22T05:14:10;10.38;;;7.57;;
14074;SDS011;12831;52.392;13.066;2023-06-22T05:16:37;9.15;;;7.20;;
14074;SDS011;12831;52.392;13.066;2023-06-22T05:19:05;13.18;;;7.70;;
14074;SDS011;12831;52.392;13.066;2023-06-22T05:21:31;7.93;;;6.82;;
14074;SDS011;12831;52.392;13.066;2023-06-22T05:23:58;9.15;;;6.93;;
14074;SDS011;12831;52.392;13.066;2023-06-22T05:26:26;8.48;;;6.32;;
14074;SDS011;12831;52.392;13.066;2023-06-22T05:28:52;9.82;;;6.43;;
14074;SDS011;12831;52.392;13.066;2023-06-22T05:31:19;9.32;;;6.80;;
14074;SDS011;12831;52.392;13.066;2023-06-22T05:33:48;10.73;;;6.85;;
14074;SDS011;12831;52.392;13.066;2023-06-22T05:36:15;8.25;;;6.68;;
14074;SDS011;12831;52.392;13.066;2023-06-22T05:38:41;6.70;;;5.65;;
14074;SDS011;12831;52.392;13.066;2023-06-22T05:41:07;8.15;;;5.40;;
14074;SDS011;12831;52.392;13.066;2023-06-22T05:43:34;15.50;;;5.90;;
14074;SDS011;12831;52.392;13.066;2023-06-22T05:46:01;7.50;;;5.97;;
14074;SDS011;12831;52.392;13.066;2023-06-22T05:48:27;8.35;;;5.15;;
14074;SDS011;12831;52.392;13.066;2023-06-22T05:50:54;8.57;;;5.88;;
14074;SDS011;12831;52.392;13.066;2023-06-22T05:53:21;8.98;;;5.53;;
14074;SDS011;12831;52.392;13.066;2023-06-22T05:55:48;7.50;;;5.32;;
14074;SDS011;12831;52.392;13.066;2023-06-22T05:58:14;8.50;;;5.10;;
14074;SDS011;12831;52.392;13.066;2023-06-22T06:00:41;9.93;;;5.20;;
14074;SDS011;12831;52.392;13.066;2023-06-22T06:03:08;7.03;;;4.72;;
14074;SDS011;12831;52.392;13.066;2023-06-22T06:05:34;6.57;;;4.28;;
14074;SDS011;12831;52.392;13.066;2023-06-22T06:08:15;7.80;;;5.32;;
14074;SDS011;12831;52.392;13.066;2023-06-22T06:10:42;11.88;;;5.80;;
14074;SDS011;12831;52.392;13.066;2023-06-22T06:13:09;7.03;;;4.72;;
14074;SDS011;12831;52.392;13.066;2023-06-22T06:15:35;8.30;;;5.43;;
14074;SDS011;12831;52.392;13.066;2023-06-22T06:18:01;8.02;;;5.13;;
14074;SDS011;12831;52.392;13.066;2023-06-22T06:20:31;7.82;;;5.60;;
14074;SDS011;12831;52.392;13.066;2023-06-22T06:23:01;9.32;;;4.57;;
14074;SDS011;12831;52.392;13.066;2023-06-22T06:25:28;10.20;;;5.10;;
14074;SDS011;12831;52.392;13.066;2023-06-22T06:27:54;7.10;;;5.07;;
14074;SDS011;12831;52.392;13.066;2023-06-22T06:30:21;7.40;;;5.60;;
14074;SDS011;12831;52.392;13.066;2023-06-22T06:32:49;7.90;;;5.28;;
14074;SDS011;12831;52.392;13.066;2023-06-22T06:35:15;7.65;;;5.05;;
14074;SDS011;12831;52.392;13.066;2023-06-22T06:37:44;7.78;;;4.10;;
14074;SDS011;12831;52.392;13.066;2023-06-22T06:40:12;4.78;;;3.60;;
14074;SDS011;12831;52.392;13.066;2023-06-22T06:42:46;6.63;;;4.53;;
14074;SDS011;12831;52.392;13.066;2023-06-22T06:45:18;6.20;;;3.65;;
14074;SDS011;12831;52.392;13.066;2023-06-22T06:50:11;10.10;;;4.43;;
14074;SDS011;12831;52.392;13.066;2023-06-22T06:52:37;9.80;;;3.17;;
14074;SDS011;12831;52.392;13.066;2023-06-22T06:55:05;6.32;;;3.35;;
14074;SDS011;12831;52.392;13.066;2023-06-22T06:57:37;6.50;;;3.47;;
14074;SDS011;12831;52.392;13.066;2023-06-22T07:00:05;7.50;;;4.18;;
14074;SDS011;12831;52.392;13.066;2023-06-22T07:02:41;4.80;;;3.35;;
14074;SDS011;12831;52.392;13.066;2023-06-22T07:05:09;4.07;;;3.22;;
14074;SDS011;12831;52.392;13.066;2023-06-22T07:07:35;5.65;;;3.08;;
14074;SDS011;12831;52.392;13.066;2023-06-22T07:10:17;5.60;;;3.25;;
14074;SDS011;12831;52.392;13.066;2023-06-22T07:12:59;6.68;;;3.95;;
14074;SDS011;12831;52.392;13.066;2023-06-22T07:15:26;7.10;;;3.50;;
14074;SDS011;12831;52.392;13.066;2023-06-22T07:17:52;6.95;;;2.72;;
14074;SDS011;12831;52.392;13.066;2023-06-22T07:20:19;4.93;;;2.70;;
14074;SDS011;12831;52.392;13.066;2023-06-22T07:22:46;4.65;;;3.50;;
14074;SDS011;12831;52.392;13.066;2023-06-22T07:25:22;5.95;;;3.08;;
14074;SDS011;12831;52.392;13.066;2023-06-22T07:28:01;3.53;;;2.53;;
14074;SDS011;12831;52.392;13.066;2023-06-22T07:30:31;5.93;;;2.95;;
14074;SDS011;12831;52.392;13.066;2023-06-22T07:32:58;3.53;;;2.40;;
14074;SDS011;12831;52.392;13.066;2023-06-22T07:35:29;7.05;;;2.55;;
14074;SDS011;12831;52.392;13.066;2023-06-22T07:37:55;6.57;;;3.10;;
14074;SDS011;12831;52.392;13.066;2023-06-22T07:40:22;4.75;;;3.22;;
14074;SDS011;12831;52.392;13.066;2023-06-22T07:42:48;4.47;;;2.97;;
14074;SDS011;12831;52.392;13.066;2023-06-22T07:45:17;5.13;;;3.05;;
14074;SDS011;12831;52.392;13.066;2023-06-22T07:47:43;4.90;;;3.58;;
14074;SDS011;12831;52.392;13.066;2023-06-22T07:50:10;5.28;;;2.97;;
14074;SDS011;12831;52.392;13.066;2023-06-22T07:52:36;4.00;;;2.80;;
14074;SDS011;12831;52.392;13.066;2023-06-22T07:55:04;3.50;;;2.83;;
14074;SDS011;12831;52.392;13.066;2023-06-22T07:57:31;7.72;;;3.03;;
14074;SDS011;12831;52.392;13.066;2023-06-22T08:00:02;5.32;;;3.25;;
14074;SDS011;12831;52.392;13.066;2023-06-22T08:02:32;6.15;;;3.20;;
14074;SDS011;12831;52.392;13.066;2023-06-22T08:04:58;7.93;;;3.25;;
14074;SDS011;12831;52.392;13.066;2023-06-22T08:07:45;6.20;;;3.03;;
14074;SDS011;12831;52.392;13.066;2023-06-22T08:10:14;4.72;;;3.00;;
14074;SDS011;12831;52.392;13.066;2023-06-22T08:12:55;4.05;;;3.08;;
14074;SDS011;12831;52.392;13.066;2023-06-22T08:15:22;4.55;;;2.85;;
14074;SDS011;12831;52.392;13.066;2023-06-22T08:17:48;4.25;;;2.50;;
14074;SDS011;12831;52.392;13.066;2023-06-22T08:20:15;5.30;;;3.20;;
14074;SDS011;12831;52.392;13.066;2023-06-22T08:22:41;6.63;;;3.35;;
14074;SDS011;12831;52.392;13.066;2023-06-22T08:25:08;5.13;;;3.08;;
14074;SDS011;12831;52.392;13.066;2023-06-22T08:27:35;6.90;;;3.42;;
14074;SDS011;12831;52.392;13.066;2023-06-22T08:30:02;6.38;;;3.25;;
14074;SDS011;12831;52.392;13.066;2023-06-22T08:32:30;3.80;;;3.00;;
14074;SDS011;12831;52.392;13.066;2023-06-22T08:35:07;5.35;;;3.00;;
14074;SDS011;12831;52.392;13.066;2023-06-22T08:37:37;5.15;;;3.00;;
14074;SDS011;12831;52.392;13.066;2023-06-22T08:40:05;5.43;;;3.88;;
14074;SDS011;12831;52.392;13.066;2023-06-22T08:42:43;7.53;;;3.90;;
14074;SDS011;12831;52.392;13.066;2023-06-22T08:45:09;3.90;;;3.10;;
14074;SDS011;12831;52.392;13.066;2023-06-22T08:47:36;3.45;;;2.65;;
14074;SDS011;12831;52.392;13.066;2023-06-22T08:50:02;3.03;;;2.50;;
14074;SDS011;12831;52.392;13.066;2023-06-22T08:52:29;4.32;;;2.85;;
14074;SDS011;12831;52.392;13.066;2023-06-22T08:54:55;4.32;;;2.97;;
14074;SDS011;12831;52.392;13.066;2023-06-22T08:57:22;5.32;;;2.45;;
14074;SDS011;12831;52.392;13.066;2023-06-22T08:59:48;3.80;;;2.70;;
14074;SDS011;12831;52.392;13.066;2023-06-22T09:02:14;3.55;;;2.40;;
14074;SDS011;12831;52.392;13.066;2023-06-22T09:04:41;6.72;;;2.92;;
14074;SDS011;12831;52.392;13.066;2023-06-22T09:07:09;5.28;;;2.55;;
14074;SDS011;12831;52.392;13.066;2023-06-22T09:09:35;4.35;;;2.22;;
14074;SDS011;12831;52.392;13.066;2023-06-22T09:12:14;3.80;;;2.10;;
14074;SDS011;12831;52.392;13.066;2023-06-22T09:14:40;5.07;;;2.70;;
14074;SDS011;12831;52.392;13.066;2023-06-22T09:17:06;5.82;;;2.47;;
14074;SDS011;12831;52.392;13.066;2023-06-22T09:19:32;3.92;;;2.65;;
14074;SDS011;12831;52.392;13.066;2023-06-22T09:21:59;3.30;;;2.10;;
14074;SDS011;12831;52.392;13.066;2023-06-22T09:24:26;4.50;;;2.83;;
14074;SDS011;12831;52.392;13.066;2023-06-22T09:26:52;5.43;;;2.42;;
14074;SDS011;12831;52.392;13.066;2023-06-22T09:29:18;5.55;;;2.28;;
14074;SDS011;12831;52.392;13.066;2023-06-22T09:31:45;5.80;;;2.60;;
14074;SDS011;12831;52.392;13.066;2023-06-22T09:34:13;8.65;;;2.58;;
14074;SDS011;12831;52.392;13.066;2023-06-22T09:36:40;4.57;;;2.70;;
14074;SDS011;12831;52.392;13.066;2023-06-22T09:39:07;5.70;;;2.60;;
14074;SDS011;12831;52.392;13.066;2023-06-22T09:41:45;6.30;;;2.50;;
14074;SDS011;12831;52.392;13.066;2023-06-22T09:44:12;5.57;;;3.23;;
14074;SDS011;12831;52.392;13.066;2023-06-22T09:46:39;7.30;;;2.90;;
14074;SDS011;12831;52.392;13.066;2023-06-22T09:49:05;4.72;;;2.70;;
14074;SDS011;12831;52.392;13.066;2023-06-22T09:51:32;7.78;;;2.85;;
14074;SDS011;12831;52.392;13.066;2023-06-22T09:54:00;4.05;;;2.30;;
14074;SDS011;12831;52.392;13.066;2023-06-22T09:56:26;5.90;;;3.10;;
14074;SDS011;12831;52.392;13.066;2023-06-22T09:58:55;4.78;;;3.13;;
14074;SDS011;12831;52.392;13.066;2023-06-22T10:01:42;5.68;;;3.47;;
14074;SDS011;12831;52.392;13.066;2023-06-22T10:04:08;4.13;;;2.72;;
14074;SDS011;12831;52.392;13.066;2023-06-22T10:06:36;3.65;;;2.65;;
14074;SDS011;12831;52.392;13.066;2023-06-22T10:09:02;5.22;;;3.80;;
14074;SDS011;12831;52.392;13.066;2023-06-22T10:14:24;4.32;;;3.45;;
14074;SDS011;12831;52.392;13.066;2023-06-22T10:16:52;3.80;;;2.85;;
14074;SDS011;12831;52.392;13.066;2023-06-22T10:19:19;4.65;;;3.50;;
14074;SDS011;12831;52.392;13.066;2023-06-22T10:21:45;5.43;;;3.75;;
14074;SDS011;12831;52.392;13.066;2023-06-22T10:24:11;5.88;;;2.83;;
14074;SDS011;12831;52.392;13.066;2023-06-22T10:26:38;4.63;;;2.97;;
14074;SDS011;12831;52.392;13.066;2023-06-22T10:29:04;6.65;;;3.42;;
14074;SDS011;12831;52.392;13.066;2023-06-22T10:31:42;4.03;;;2.83;;
14074;SDS011;12831;52.392;13.066;2023-06-22T10:34:08;5.18;;;3.10;;
14074;SDS011;12831;52.392;13.066;2023-06-22T10:36:34;5.05;;;3.20;;
14074;SDS011;12831;52.392;13.066;2023-06-22T10:39:00;4.95;;;3.65;;
14074;SDS011;12831;52.392;13.066;2023-06-22T10:41:43;5.78;;;3.42;;
14074;SDS011;12831;52.392;13.066;2023-06-22T10:44:10;6.28;;;3.17;;
14074;SDS011;12831;52.392;13.066;2023-06-22T10:46:37;7.35;;;3.58;;
14074;SDS011;12831;52.392;13.066;2023-06-22T10:49:04;4.95;;;3.85;;
14074;SDS011;12831;52.392;13.066;2023-06-22T10:51:31;4.45;;;3.53;;
14074;SDS011;12831;52.392;13.066;2023-06-22T10:53:57;3.72;;;2.90;;
14074;SDS011;12831;52.392;13.066;2023-06-22T10:56:26;6.75;;;3.47;;
14074;SDS011;12831;52.392;13.066;2023-06-22T10:58:52;4.10;;;3.13;;
14074;SDS011;12831;52.392;13.066;2023-06-22T11:01:20;4.55;;;3.15;;
14074;SDS011;12831;52.392;13.066;2023-06-22T11:03:51;6.38;;;3.50;;
14074;SDS011;12831;52.392;13.066;2023-06-22T11:06:20;3.45;;;2.75;;
14074;SDS011;12831;52.392;13.066;2023-06-22T11:08:46;6.15;;;2.95;;
14074;SDS011;12831;52.392;13.066;2023-06-22T11:11:32;7.30;;;3.00;;
14074;SDS011;12831;52.392;13.066;2023-06-22T11:13:59;5.53;;;3.03;;
14074;SDS011;12831;52.392;13.066;2023-06-22T11:16:26;6.30;;;3.92;;
14074;SDS011;12831;52.392;13.066;2023-06-22T11:18:53;5.30;;;3.97;;
14074;SDS011;12831;52.392;13.066;2023-06-22T11:21:19;6.93;;;3.00;;
14074;SDS011;12831;52.392;13.066;2023-06-22T11:23:45;6.57;;;3.70;;
14074;SDS011;12831;52.392;13.066;2023-06-22T11:26:12;3.10;;;2.80;;
14074;SDS011;12831;52.392;13.066;2023-06-22T11:28:38;5.72;;;4.03;;
14074;SDS011;12831;52.392;13.066;2023-06-22T11:31:05;4.93;;;3.28;;
14074;SDS011;12831;52.392;13.066;2023-06-22T11:33:51;4.32;;;3.40;;
14074;SDS011;12831;52.392;13.066;2023-06-22T11:36:17;6.10;;;3.08;;
14074;SDS011;12831;52.392;13.066;2023-06-22T11:38:44;5.18;;;3.20;;
14074;SDS011;12831;52.392;13.066;2023-06-22T11:41:29;4.75;;;3.63;;
14074;SDS011;12831;52.392;13.066;2023-06-22T11:43:56;5.28;;;2.85;;
14074;SDS011;12831;52.392;13.066;2023-06-22T11:46:25;4.20;;;3.20;;
14074;SDS011;12831;52.392;13.066;2023-06-22T11:48:51;5.28;;;3.53;;
14074;SDS011;12831;52.392;13.066;2023-06-22T11:51:18;5.40;;;3.20;;
14074;SDS011;12831;52.392;13.066;2023-06-22T11:53:44;3.28;;;2.78;;
14074;SDS011;12831;52.392;13.066;2023-06-22T11:56:11;7.32;;;3.35;;
14074;SDS011;12831;52.392;13.066;2023-06-22T11:58:38;4.43;;;3.38;;
14074;SDS011;12831;52.392;13.066;2023-06-22T12:01:04;6.90;;;2.92;;
14074;SDS011;12831;52.392;13.066;2023-06-22T12:03:30;3.50;;;2.63;;
14074;SDS011;12831;52.392;13.066;2023-06-22T12:05:57;4.50;;;2.78;;
14074;SDS011;12831;52.392;13.066;2023-06-22T12:08:26;4.20;;;2.80;;
14074;SDS011;12831;52.392;13.066;2023-06-22T12:10:52;3.72;;;2.78;;
14074;SDS011;12831;52.392;13.066;2023-06-22T12:13:20;3.78;;;2.85;;
14074;SDS011;12831;52.392;13.066;2023-06-22T12:15:46;4.85;;;3.00;;
14074;SDS011;12831;52.392;13.066;2023-06-22T12:18:12;4.90;;;2.75;;
14074;SDS011;12831;52.392;13.066;2023-06-22T12:20:42;4.53;;;3.00;;
14074;SDS011;12831;52.392;13.066;2023-06-22T12:23:11;4.85;;;3.25;;
14074;SDS011;12831;52.392;13.066;2023-06-22T12:25:40;5.38;;;3.40;;
14074;SDS011;12831;52.392;13.066;2023-06-22T12:28:06;10.90;;;2.85;;
14074;SDS011;12831;52.392;13.066;2023-06-22T12:30:33;5.05;;;3.00;;
14074;SDS011;12831;52.392;13.066;2023-06-22T12:33:00;4.05;;;3.00;;
14074;SDS011;12831;52.392;13.066;2023-06-22T12:35:26;3.20;;;2.70;;
14074;SDS011;12831;52.392;13.066;2023-06-22T12:37:52;7.90;;;3.50;;
14074;SDS011;12831;52.392;13.066;2023-06-22T12:40:19;7.50;;;3.70;;
14074;SDS011;12831;52.392;13.066;2023-06-22T12:43:04;4.85;;;3.22;;
14074;SDS011;12831;52.392;13.066;2023-06-22T12:45:35;3.75;;;3.00;;
14074;SDS011;12831;52.392;13.066;2023-06-22T12:48:01;11.30;;;3.38;;
14074;SDS011;12831;52.392;13.066;2023-06-22T12:50:28;4.00;;;3.42;;
14074;SDS011;12831;52.392;13.066;2023-06-22T12:52:54;6.35;;;3.35;;
14074;SDS011;12831;52.392;13.066;2023-06-22T12:55:24;4.07;;;2.88;;
14074;SDS011;12831;52.392;13.066;2023-06-22T12:57:50;6.60;;;3.58;;
14074;SDS011;12831;52.392;13.066;2023-06-22T13:00:16;7.97;;;3.42;;
14074;SDS011;12831;52.392;13.066;2023-06-22T13:02:42;4.82;;;3.53;;
14074;SDS011;12831;52.392;13.066;2023-06-22T13:05:10;5.43;;;3.47;;
14074;SDS011;12831;52.392;13.066;2023-06-22T13:07:38;4.43;;;3.42;;
14074;SDS011;12831;52.392;13.066;2023-06-22T13:10:04;3.22;;;2.50;;
14074;SDS011;12831;52.392;13.066;2023-06-22T13:12:31;5.78;;;3.42;;
14074;SDS011;12831;52.392;13.066;2023-06-22T13:14:57;5.25;;;3.80;;
14074;SDS011;12831;52.392;13.066;2023-06-22T13:17:26;5.03;;;3.85;;
14074;SDS011;12831;52.392;13.066;2023-06-22T13:19:53;5.30;;;3.70;;
14074;SDS011;12831;52.392;13.066;2023-06-22T13:24:59;5.22;;;3.70;;
14074;SDS011;12831;52.392;13.066;2023-06-22T13:27:26;7.85;;;3.78;;
14074;SDS011;12831;52.392;13.066;2023-06-22T13:29:53;5.82;;;3.88;;
14074;SDS011;12831;52.392;13.066;2023-06-22T13:32:19;5.60;;;3.83;;
14074;SDS011;12831;52.392;13.066;2023-06-22T13:34:45;5.20;;;3.25;;
14074;SDS011;12831;52.392;13.066;2023-06-22T13:37:12;8.85;;;3.95;;
14074;SDS011;12831;52.392;13.066;2023-06-22T13:39:41;3.45;;;2.63;;
14074;SDS011;12831;52.392;13.066;2023-06-22T13:42:13;7.80;;;3.30;;
14074;SDS011;12831;52.392;13.066;2023-06-22T13:44:42;3.13;;;2.60;;
14074;SDS011;12831;52.392;13.066;2023-06-22T13:47:08;5.78;;;4.05;;
14074;SDS011;12831;52.392;13.066;2023-06-22T13:49:34;5.38;;;3.88;;
14074;SDS011;12831;52.392;13.066;2023-06-22T13:52:00;5.28;;;3.60;;
14074;SDS011;12831;52.392;13.066;2023-06-22T13:54:26;4.65;;;3.67;;
14074;SDS011;12831;52.392;13.066;2023-06-22T13:56:56;6.10;;;3.78;;
14074;SDS011;12831;52.392;13.066;2023-06-22T13:59:22;4.18;;;3.08;;
14074;SDS011;12831;52.392;13.066;2023-06-22T14:01:48;6.25;;;3.20;;
14074;SDS011;12831;52.392;13.066;2023-06-22T14:04:19;3.85;;;3.03;;
14074;SDS011;12831;52.392;13.066;2023-06-22T14:06:45;6.60;;;3.88;;
14074;SDS011;12831;52.392;13.066;2023-06-22T14:09:12;4.97;;;3.35;;
14074;SDS011;12831;52.392;13.066;2023-06-22T14:14:46;7.30;;;4.93;;
14074;SDS011;12831;52.392;13.066;2023-06-22T14:17:13;6.75;;;3.80;;
14074;SDS011;12831;52.392;13.066;2023-06-22T14:19:39;4.95;;;3.55;;
14074;SDS011;12831;52.392;13.066;2023-06-22T14:22:05;6.53;;;3.45;;
14074;SDS011;12831;52.392;13.066;2023-06-22T14:24:31;5.18;;;3.05;;
14074;SDS011;12831;52.392;13.066;2023-06-22T14:26:58;5.57;;;4.10;;
14074;SDS011;12831;52.392;13.066;2023-06-22T14:29:28;4.50;;;2.97;;
14074;SDS011;12831;52.392;13.066;2023-06-22T14:31:54;5.78;;;3.70;;
14074;SDS011;12831;52.392;13.066;2023-06-22T14:34:22;6.28;;;3.67;;
14074;SDS011;12831;52.392;13.066;2023-06-22T14:36:49;4.97;;;3.65;;
14074;SDS011;12831;52.392;13.066;2023-06-22T14:39:15;5.72;;;3.90;;
14074;SDS011;12831;52.392;13.066;2023-06-22T14:41:51;6.72;;;3.80;;
14074;SDS011;12831;52.392;13.066;2023-06-22T14:44:18;5.88;;;3.72;;
14074;SDS011;12831;52.392;13.066;2023-06-22T14:46:44;6.55;;;4.15;;